createdAt,value
2023-05-16T00:01:18.274Z,7.70
2023-05-16T00:06:18.991Z,9.07
2023-05-16T00:11:21.852Z,8.55
2023-05-16T00:16:22.654Z,8.15
2023-05-16T00:21:23.821Z,7.55
2023-05-16T00:26:26.288Z,7.82
2023-05-16T00:31:27.011Z,7.53
2023-05-16T00:36:27.710Z,8.70
2023-05-16T00:41:29.894Z,8.95
2023-05-16T00:46:30.786Z,7.95
2023-05-16T00:51:31.952Z,8.88
2023-05-16T00:56:34.668Z,8.63
2023-05-16T01:01:37.560Z,9.00
2023-05-16T01:06:38.263Z,8.40
2023-05-16T01:11:52.161Z,9.52
2023-05-16T01:17:01.078Z,9.40
2023-05-16T01:22:07.355Z,8.82
2023-05-16T01:27:10.425Z,8.57
2023-05-16T01:32:11.156Z,8.95
2023-05-16T01:37:18.397Z,9.52
2023-05-16T01:42:25.444Z,8.88
2023-05-16T01:47:27.885Z,9.02
2023-05-16T01:52:36.250Z,9.23
2023-05-16T01:57:39.852Z,9.55
2023-05-16T02:02:40.668Z,8.57
2023-05-16T02:07:43.093Z,11.18
2023-05-16T02:12:45.286Z,9.63
2023-05-16T02:17:47.551Z,10.73
2023-05-16T02:22:50.178Z,9.98
2023-05-16T02:27:52.234Z,10.63
2023-05-16T02:32:54.189Z,10.68
2023-05-16T02:37:55.441Z,10.18
2023-05-16T02:42:59.898Z,10.45
2023-05-16T02:48:00.792Z,10.90
2023-05-16T02:53:02.486Z,10.15
2023-05-16T02:58:04.578Z,11.25
2023-05-16T03:03:05.741Z,11.20
2023-05-16T03:08:06.854Z,11.82
2023-05-16T03:13:09.582Z,11.77
2023-05-16T03:18:10.452Z,10.98
2023-05-16T03:23:11.164Z,11.98
2023-05-16T03:28:15.213Z,11.60
2023-05-16T03:33:16.246Z,12.48
2023-05-16T03:38:17.169Z,11.85
2023-05-16T03:43:19.285Z,11.52
2023-05-16T03:48:20.047Z,12.20
2023-05-16T03:53:21.044Z,11.82
2023-05-16T03:58:23.823Z,11.70
2023-05-16T04:03:28.626Z,11.63
2023-05-16T04:08:29.819Z,12.43
2023-05-16T04:13:31.896Z,12.52
2023-05-16T04:18:32.647Z,11.23
2023-05-16T04:23:33.388Z,11.23
2023-05-16T04:28:35.961Z,11.73
2023-05-16T04:33:37.274Z,12.25
2023-05-16T04:38:38.250Z,11.88
2023-05-16T04:43:40.687Z,12.05
2023-05-16T04:48:41.349Z,11.80
2023-05-16T04:53:42.026Z,12.35
2023-05-16T04:58:44.092Z,12.85
2023-05-16T05:03:46.923Z,13.07
2023-05-16T05:08:48.958Z,12.10
2023-05-16T05:13:52.996Z,13.25
2023-05-16T05:18:53.971Z,15.70
2023-05-16T05:23:54.746Z,14.40
2023-05-16T05:29:04.759Z,15.35
2023-05-16T05:34:06.293Z,14.80
2023-05-16T05:39:07.181Z,16.40
2023-05-16T05:44:09.279Z,16.58
2023-05-16T05:49:10.191Z,18.67
2023-05-16T05:54:11.158Z,17.65
2023-05-16T05:59:13.213Z,17.88
2023-05-16T06:04:13.911Z,18.35
2023-05-16T06:09:15.143Z,17.75
2023-05-16T06:14:17.191Z,19.67
2023-05-16T06:19:17.953Z,19.95
2023-05-16T06:24:18.725Z,20.83
2023-05-16T06:29:20.805Z,24.30
2023-05-16T06:34:23.925Z,25.25
2023-05-16T06:39:24.608Z,29.75
2023-05-16T06:44:27.105Z,26.85
2023-05-16T06:49:28.027Z,29.63
2023-05-16T06:54:28.760Z,29.35
2023-05-16T06:59:30.860Z,29.50
2023-05-16T07:04:31.850Z,29.83
2023-05-16T07:09:32.817Z,27.05
2023-05-16T07:14:34.894Z,23.80
2023-05-16T07:19:35.648Z,20.85
2023-05-16T07:24:37.131Z,20.40
2023-05-16T07:29:39.383Z,17.23
2023-05-16T07:34:40.103Z,17.95
2023-05-16T07:39:41.092Z,17.55
2023-05-16T07:44:43.128Z,17.38
2023-05-16T07:49:43.876Z,18.85
2023-05-16T07:54:44.728Z,17.50
2023-05-16T07:59:47.030Z,16.17
2023-05-16T08:04:48.885Z,13.88
2023-05-16T08:09:49.623Z,15.43
2023-05-16T08:14:52.031Z,15.82
2023-05-16T08:19:52.772Z,14.30
2023-05-16T08:24:57.704Z,14.13
2023-05-16T08:29:59.773Z,14.07
2023-05-16T08:35:01.071Z,13.52
2023-05-16T08:40:01.780Z,12.23
2023-05-16T08:45:05.478Z,12.80
2023-05-16T08:50:10.277Z,12.13
2023-05-16T08:55:12.619Z,14.32
2023-05-16T09:00:16.224Z,12.27
2023-05-16T09:05:18.934Z,11.88
2023-05-16T09:10:19.710Z,12.32
2023-05-16T09:15:22.068Z,11.70
2023-05-16T09:20:22.809Z,10.77
2023-05-16T09:25:31.099Z,11.50
2023-05-16T09:30:35.266Z,10.63
2023-05-16T09:35:44.961Z,9.57
2023-05-16T09:40:47.346Z,10.32
2023-05-16T09:45:50.433Z,10.55
2023-05-16T09:50:54.369Z,9.85
2023-05-16T09:56:02.961Z,10.50
2023-05-16T10:01:06.032Z,10.45
2023-05-16T10:06:07.874Z,9.00
2023-05-16T10:11:08.660Z,8.63
2023-05-16T10:16:13.396Z,7.97
2023-05-16T10:21:16.587Z,8.85
2023-05-16T10:26:18.509Z,7.63
2023-05-16T10:31:22.015Z,7.85
2023-05-16T10:36:22.919Z,7.43
2023-05-16T10:41:23.815Z,8.35
2023-05-16T10:46:29.190Z,8.15
2023-05-16T10:51:38.710Z,8.45
2023-05-16T10:56:39.881Z,7.38
2023-05-16T11:01:42.152Z,7.03
2023-05-16T11:06:54.719Z,7.22
2023-05-16T11:11:57.674Z,6.15
2023-05-16T11:17:04.486Z,5.32
2023-05-16T11:22:27.144Z,5.90
2023-05-16T11:27:30.164Z,4.57
2023-05-16T11:32:35.131Z,4.97
2023-05-16T11:37:37.829Z,4.25
2023-05-16T11:42:40.553Z,4.30
2023-05-16T11:47:45.688Z,4.55
2023-05-16T11:52:48.208Z,4.60
2023-05-16T11:57:49.045Z,4.53
2023-05-16T12:02:52.138Z,4.50
2023-05-16T12:07:54.419Z,4.25
2023-05-16T12:12:56.308Z,5.13
2023-05-16T12:17:58.980Z,4.03
2023-05-16T12:22:59.921Z,4.53
2023-05-16T12:28:02.334Z,4.18
2023-05-16T12:33:09.355Z,3.70
2023-05-16T12:38:14.094Z,4.15
2023-05-16T12:43:16.868Z,4.00
2023-05-16T12:48:19.325Z,3.33
2023-05-16T12:53:20.212Z,4.03
2023-05-16T12:58:21.110Z,3.75
2023-05-16T13:03:23.214Z,3.78
2023-05-16T13:08:24.034Z,3.72
2023-05-16T13:13:35.343Z,3.72
2023-05-16T13:18:38.439Z,3.60
2023-05-16T13:23:39.138Z,4.05
2023-05-16T13:28:39.890Z,3.83
2023-05-16T13:33:41.955Z,4.13
2023-05-16T13:38:42.758Z,4.03
2023-05-16T13:43:43.439Z,3.22
2023-05-16T13:48:45.483Z,2.97
2023-05-16T13:53:46.206Z,3.15
2023-05-16T14:03:54.903Z,3.55
2023-05-16T14:08:55.851Z,3.70
2023-05-16T14:13:56.873Z,3.33
2023-05-16T14:18:59.033Z,2.92
2023-05-16T14:24:00.111Z,2.65
2023-05-16T14:29:00.838Z,2.70
2023-05-16T14:34:03.072Z,2.70
2023-05-16T14:39:04.190Z,2.47
2023-05-16T14:44:05.245Z,2.90
2023-05-16T14:49:07.376Z,2.95
2023-05-16T14:54:08.572Z,2.75
2023-05-16T14:59:09.368Z,2.85
2023-05-16T15:04:11.552Z,2.58
2023-05-16T15:09:12.311Z,2.70
2023-05-16T15:14:13.405Z,2.63
2023-05-16T15:19:15.522Z,2.55
2023-05-16T15:24:16.686Z,2.90
2023-05-16T15:29:20.064Z,2.53
2023-05-16T15:34:22.203Z,2.15
2023-05-16T15:39:25.834Z,2.40
2023-05-16T15:44:26.553Z,2.92
2023-05-16T15:49:28.865Z,2.42
2023-05-16T15:54:29.724Z,2.45
2023-05-16T15:59:30.421Z,2.13
2023-05-16T16:04:32.703Z,2.45
2023-05-16T16:09:33.547Z,2.38
2023-05-16T16:14:34.333Z,2.13
2023-05-16T16:19:36.538Z,2.17
2023-05-16T16:24:37.285Z,2.05
2023-05-16T16:29:37.982Z,1.88
2023-05-16T16:34:40.063Z,1.92
2023-05-16T16:39:40.878Z,3.17
2023-05-16T16:44:41.580Z,1.73
2023-05-16T16:49:43.642Z,2.10
2023-05-16T16:54:45.114Z,1.83
2023-05-16T16:59:46.669Z,2.10
2023-05-16T17:04:49.179Z,1.98
2023-05-16T17:09:49.944Z,2.58
2023-05-16T17:14:51.820Z,2.10
2023-05-16T17:19:54.195Z,2.40
2023-05-16T17:24:54.901Z,1.58
2023-05-16T17:29:55.652Z,1.60
2023-05-16T17:34:57.687Z,2.20
2023-05-16T17:39:58.584Z,2.03
2023-05-16T17:45:03.545Z,2.13
2023-05-16T17:50:08.768Z,2.20
2023-05-16T17:55:11.115Z,1.90
2023-05-16T18:00:14.973Z,2.05
2023-05-16T18:05:17.414Z,2.10
2023-05-16T18:10:18.299Z,2.08
2023-05-16T18:15:19.530Z,2.25
2023-05-16T18:20:21.945Z,2.05
2023-05-16T18:25:22.776Z,2.55
2023-05-16T18:30:23.604Z,2.40
2023-05-16T18:35:27.603Z,2.50
2023-05-16T18:40:28.872Z,2.00
2023-05-16T18:45:30.233Z,2.33
2023-05-16T18:50:32.701Z,1.83
2023-05-16T18:55:33.870Z,2.60
2023-05-16T19:00:34.715Z,2.50
2023-05-16T19:05:37.465Z,2.22
2023-05-16T19:10:41.552Z,2.75
2023-05-16T19:15:42.287Z,2.47
2023-05-16T19:20:45.584Z,2.75
2023-05-16T19:25:49.033Z,2.55
2023-05-16T19:30:49.908Z,2.78
2023-05-16T19:35:53.712Z,2.75
2023-05-16T19:40:54.685Z,2.63
2023-05-16T19:45:55.427Z,2.47
2023-05-16T19:50:57.541Z,3.08
2023-05-16T19:55:58.412Z,3.40
2023-05-16T20:00:59.144Z,3.75
2023-05-16T20:06:10.200Z,2.65
2023-05-16T20:11:12.017Z,2.88
2023-05-16T20:16:12.790Z,2.28
2023-05-16T20:21:14.825Z,1.77
2023-05-16T20:26:15.773Z,3.28
2023-05-16T20:31:16.608Z,2.10
2023-05-16T20:36:18.816Z,1.80
2023-05-16T20:41:19.534Z,1.70
2023-05-16T20:46:20.282Z,1.58
2023-05-16T20:51:22.423Z,2.00
2023-05-16T20:56:23.530Z,1.52
2023-05-16T21:01:24.256Z,2.75
2023-05-16T21:06:26.330Z,1.90
2023-05-16T21:11:27.634Z,2.05
2023-05-16T21:16:29.883Z,2.28
2023-05-16T21:21:32.021Z,2.28
2023-05-16T21:26:32.723Z,2.20
2023-05-16T21:31:33.433Z,1.90
2023-05-16T21:36:35.863Z,1.92
2023-05-16T21:41:36.596Z,1.85
2023-05-16T21:46:37.372Z,1.73
2023-05-16T21:51:39.467Z,1.50
2023-05-16T21:56:40.233Z,1.98
2023-05-16T22:01:40.957Z,1.33
2023-05-16T22:06:43.089Z,2.42
2023-05-16T22:11:43.819Z,1.65
2023-05-16T22:16:44.573Z,1.45
2023-05-16T22:21:46.602Z,2.65
2023-05-16T22:26:47.461Z,1.70
2023-05-16T22:31:48.195Z,1.73
2023-05-16T22:36:50.270Z,1.08
2023-05-16T22:41:51.493Z,1.42
2023-05-16T22:46:52.196Z,1.50
2023-05-16T22:51:54.243Z,1.73
2023-05-16T22:56:54.968Z,1.20
2023-05-16T23:01:55.657Z,1.38
2023-05-16T23:06:57.687Z,1.20
2023-05-16T23:11:59.200Z,1.40
2023-05-16T23:16:59.994Z,1.40
2023-05-16T23:22:03.436Z,1.60
2023-05-16T23:27:04.159Z,1.73
2023-05-16T23:32:05.211Z,1.50
2023-05-16T23:37:07.315Z,1.63
2023-05-16T23:42:08.112Z,1.73
2023-05-16T23:47:09.378Z,2.03
2023-05-16T23:52:11.417Z,1.80
2023-05-16T23:57:12.124Z,1.45
